Time;durP1;ratioP1;P1;durP2;ratioP2;P2;SDS_P1;SDS_P2;PMS_P1;PMS_P2;Temp;Humidity;BMP_temperature;BMP_pressure;BME280_temperature;BME280_humidity;BME280_pressure;Samples;Min_cycle;Max_cycle;Signal;HPM_P1;HPM_P2
2022/05/02 00:00:07;;;;;;;15.77;4.10;;;;;;;12.31;56.23;93991.00;5066109;28;20048;-75
2022/05/02 00:02:33;;;;;;;6.63;3.95;;;;;;;12.26;56.21;93993.84;5065496;28;20062;-74
2022/05/02 00:04:59;;;;;;;10.55;4.28;;;;;;;12.23;56.64;93993.38;5065966;28;20048;-76
2022/05/02 00:07:24;;;;;;;5.18;3.70;;;;;;;12.24;56.44;93992.28;5065858;28;20032;-75
2022/05/02 00:09:50;;;;;;;11.20;3.80;;;;;;;12.23;56.50;93993.38;5065990;28;20027;-75
2022/05/02 00:12:15;;;;;;;8.02;3.85;;;;;;;12.28;56.09;93986.31;5066107;28;20372;-75
2022/05/02 00:14:41;;;;;;;5.03;3.80;;;;;;;12.26;55.98;93991.19;5065821;28;20051;-75
2022/05/02 00:17:06;;;;;;;9.18;3.90;;;;;;;12.24;55.74;93986.94;5065672;28;20041;-75
2022/05/02 00:19:32;;;;;;;6.60;4.78;;;;;;;12.28;55.54;93987.09;5065772;28;20021;-76
2022/05/02 00:21:57;;;;;;;6.95;4.50;;;;;;;12.23;55.75;93979.22;5064458;28;20029;-76
2022/05/02 00:24:23;;;;;;;6.82;4.57;;;;;;;12.24;55.67;93986.94;5065624;28;20032;-76
2022/05/02 00:26:49;;;;;;;7.07;4.78;;;;;;;12.23;55.52;93969.34;5065793;28;20088;-76
2022/05/02 00:29:14;;;;;;;8.02;4.90;;;;;;;12.26;55.44;93970.59;5065455;28;20036;-76
2022/05/02 00:31:40;;;;;;;9.25;5.43;;;;;;;12.27;55.62;93968.69;5065502;28;20028;-76
2022/05/02 00:34:06;;;;;;;8.68;5.20;;;;;;;12.34;55.31;93969.00;5065513;28;20063;-76
2022/05/02 00:36:31;;;;;;;9.73;4.85;;;;;;;12.36;55.16;93969.44;5065352;28;20028;-76
2022/05/02 00:38:57;;;;;;;15.25;5.20;;;;;;;12.37;55.19;93965.66;5065273;28;20025;-74
2022/05/02 00:41:22;;;;;;;11.77;4.82;;;;;;;12.34;55.43;93969.75;5065209;28;20025;-74
2022/05/02 00:43:48;;;;;;;6.57;4.55;;;;;;;12.29;55.63;93969.16;5065341;28;20017;-74
2022/05/02 00:46:23;;;;;;;6.85;4.53;;;;;;;12.25;55.56;93971.66;5065171;28;20017;-75
2022/05/02 00:48:48;;;;;;;6.75;4.22;;;;;;;12.22;55.09;93965.09;5065218;28;20012;-75
2022/05/02 00:51:15;;;;;;;6.75;4.50;;;;;;;12.19;54.85;93960.41;5064967;28;20254;-75
2022/05/02 00:53:41;;;;;;;8.98;4.88;;;;;;;12.19;54.51;93959.59;5064483;28;20035;-74
2022/05/02 00:56:07;;;;;;;7.22;5.15;;;;;;;12.19;54.86;93957.72;5064115;28;20045;-74
2022/05/02 00:58:36;;;;;;;12.45;6.07;;;;;;;12.21;54.68;93960.88;5064848;28;20143;-75
2022/05/02 01:01:04;;;;;;;9.23;4.60;;;;;;;12.24;54.10;93960.22;5064975;28;20024;-75
2022/05/02 01:03:30;;;;;;;9.50;5.35;;;;;;;12.24;53.86;93962.88;5063734;28;20055;-75
2022/05/02 01:08:40;;;;;;;7.25;5.32;;;;;;;12.24;53.75;93954.09;5064736;28;20119;-75
2022/05/02 01:11:05;;;;;;;13.65;5.63;;;;;;;12.25;53.08;93955.63;5064703;28;20089;-75
2022/05/02 01:13:39;;;;;;;11.25;5.22;;;;;;;12.23;53.19;93947.97;5064645;28;20028;-75
2022/05/02 01:16:14;;;;;;;6.65;4.28;;;;;;;12.26;53.03;93957.22;5064433;28;20035;-75
2022/05/02 01:18:42;;;;;;;7.28;4.90;;;;;;;12.27;53.08;93936.63;5064375;28;20315;-76
2022/05/02 01:21:14;;;;;;;7.68;5.15;;;;;;;12.21;52.96;93947.50;5064552;28;20092;-75
2022/05/02 01:23:40;;;;;;;8.65;4.88;;;;;;;12.23;53.28;93941.81;5064340;28;20028;-75
2022/05/02 01:26:05;;;;;;;7.20;5.03;;;;;;;12.28;53.52;93935.53;5064304;28;20025;-75
2022/05/02 01:28:31;;;;;;;9.70;6.40;;;;;;;12.34;53.37;93936.91;5064530;28;20021;-75
2022/05/02 01:30:57;;;;;;;9.00;4.68;;;;;;;12.24;53.93;93941.50;5064265;28;20029;-75
2022/05/02 01:33:23;;;;;;;6.70;4.90;;;;;;;12.26;54.12;93933.16;5064324;28;20051;-75
2022/05/02 01:35:48;;;;;;;7.28;5.15;;;;;;;12.20;54.38;93935.22;5064367;28;20025;-76
2022/05/02 01:38:14;;;;;;;6.80;4.53;;;;;;;12.16;55.11;93936.97;5063846;28;20040;-76
2022/05/02 01:40:40;;;;;;;8.32;4.65;;;;;;;12.13;55.32;93926.94;5064248;28;20123;-76
2022/05/02 01:43:05;;;;;;;8.85;4.45;;;;;;;12.12;55.61;93919.25;5064197;28;20036;-75
2022/05/02 01:45:31;;;;;;;7.18;4.32;;;;;;;12.14;55.85;93919.69;5064026;28;20226;-76
2022/05/02 01:47:56;;;;;;;12.35;5.00;;;;;;;12.13;55.53;93918.13;5064052;28;20055;-76
2022/05/02 01:50:22;;;;;;;10.02;4.65;;;;;;;12.09;55.73;93919.88;5063993;28;20320;-76
2022/05/02 01:52:47;;;;;;;7.45;4.35;;;;;;;12.08;55.54;93912.97;5063975;28;20325;-76
2022/05/02 01:55:13;;;;;;;6.82;3.92;;;;;;;12.02;55.88;93917.69;5063914;28;20025;-74
2022/05/02 01:57:38;;;;;;;5.22;3.67;;;;;;;11.94;56.17;93913.19;5063560;28;20048;-74
2022/05/02 02:00:04;;;;;;;6.53;4.22;;;;;;;11.90;56.29;93906.91;5063834;28;20032;-74
2022/05/02 02:02:30;;;;;;;5.82;3.75;;;;;;;11.88;56.29;93906.41;5063688;28;20055;-74
2022/05/02 02:07:39;;;;;;;6.95;4.72;;;;;;;11.90;56.31;93906.91;5063678;28;20028;-74
2022/05/02 02:10:05;;;;;;;5.75;4.00;;;;;;;11.87;56.48;93886.94;5063792;28;20028;-74
2022/05/02 02:12:31;;;;;;;7.57;3.60;;;;;;;11.79;56.71;93901.88;5063602;28;20040;-74
2022/05/02 02:14:56;;;;;;;6.85;3.55;;;;;;;11.73;57.10;93891.69;5063491;28;20200;-74
2022/05/02 02:17:22;;;;;;;7.72;4.18;;;;;;;11.72;57.16;93882.88;5063676;28;20095;-74
2022/05/02 02:19:47;;;;;;;8.40;4.43;;;;;;;11.69;57.42;93883.53;5063480;28;20051;-74
2022/05/02 02:22:16;;;;;;;14.77;3.95;;;;;;;11.68;57.42;93878.50;5063347;28;20021;-74
2022/05/02 02:24:44;;;;;;;6.75;3.90;;;;;;;11.63;57.84;93884.81;5063353;28;20161;-74
2022/05/02 02:27:09;;;;;;;6.75;4.45;;;;;;;11.66;57.74;93881.50;5063308;28;20020;-74
2022/05/02 02:29:35;;;;;;;7.30;4.40;;;;;;;11.64;57.66;93884.50;5063050;28;20086;-74
2022/05/02 02:32:00;;;;;;;8.93;4.65;;;;;;;11.58;57.91;93883.09;5063217;28;20103;-74
2022/05/02 02:34:26;;;;;;;11.10;4.40;;;;;;;11.56;57.98;93866.63;5063183;28;20017;-74
2022/05/02 02:36:51;;;;;;;6.72;4.78;;;;;;;11.55;58.29;93870.38;5063257;28;20017;-74
2022/05/02 02:39:17;;;;;;;6.78;4.38;;;;;;;11.54;58.10;93860.81;5062993;28;20036;-74
2022/05/02 02:41:42;;;;;;;10.63;5.47;;;;;;;11.56;57.78;93855.13;5063025;28;20349;-74
2022/05/02 02:44:07;;;;;;;8.60;5.47;;;;;;;11.51;58.08;93850.00;5063049;28;20031;-74
2022/05/02 02:46:33;;;;;;;9.85;5.60;;;;;;;11.45;58.46;93854.72;5062950;28;20021;-74
2022/05/02 02:48:58;;;;;;;9.57;5.93;;;;;;;11.42;58.53;93856.13;5062900;28;20017;-74
2022/05/02 02:51:24;;;;;;;10.38;5.80;;;;;;;11.37;58.72;93852.84;5061547;28;20193;-74
2022/05/02 02:53:51;;;;;;;10.85;5.50;;;;;;;11.30;58.90;93855.22;5063054;28;20021;-74
2022/05/02 02:56:16;;;;;;;9.85;6.88;;;;;;;11.24;58.98;93855.38;5062628;28;20067;-75
2022/05/02 02:58:42;;;;;;;8.13;5.95;;;;;;;11.19;59.33;93857.44;5062644;28;20013;-74
2022/05/02 03:01:07;;;;;;;14.52;5.80;;;;;;;11.18;59.35;93853.97;5062639;28;20115;-75
2022/05/02 03:03:33;;;;;;;15.30;6.00;;;;;;;11.04;59.82;93856.81;5062548;28;20017;-75
2022/05/02 03:06:01;;;;;;;8.95;5.82;;;;;;;10.97;60.20;93848.53;5062653;28;20025;-75
2022/05/02 03:08:27;;;;;;;11.07;5.85;;;;;;;10.93;60.36;93846.78;5062643;28;20013;-76
2022/05/02 03:10:54;;;;;;;10.00;6.50;;;;;;;10.86;60.62;93847.25;5062784;28;20021;-75
2022/05/02 03:13:20;;;;;;;10.07;6.95;;;;;;;10.76;60.73;93850.25;5062681;28;20236;-75
2022/05/02 03:15:45;;;;;;;12.77;6.75;;;;;;;10.72;60.77;93841.31;5061301;28;20040;-75
2022/05/02 03:18:11;;;;;;;10.23;6.88;;;;;;;10.68;60.92;93838.47;5061696;28;20055;-76
2022/05/02 03:20:36;;;;;;;11.35;6.50;;;;;;;10.66;60.89;93850.56;5062360;28;20025;-75
2022/05/02 03:23:02;;;;;;;8.88;7.05;;;;;;;10.59;61.25;93853.69;5062290;28;20029;-74
2022/05/02 03:25:27;;;;;;;15.63;6.80;;;;;;;10.55;61.50;93848.19;5062352;28;20059;-74
2022/05/02 03:27:53;;;;;;;13.48;6.93;;;;;;;10.54;61.29;93848.50;5062526;28;20059;-74
2022/05/02 03:30:18;;;;;;;14.43;7.60;;;;;;;10.54;61.07;93848.50;5062390;28;20044;-74
2022/05/02 03:32:44;;;;;;;10.05;6.55;;;;;;;10.53;60.94;93845.06;5062419;28;20055;-74
2022/05/02 03:35:09;;;;;;;11.95;7.55;;;;;;;10.52;61.30;93842.69;5062219;28;20168;-74
2022/05/02 03:37:35;;;;;;;12.65;7.47;;;;;;;10.57;61.30;93847.91;5062238;28;20051;-74
2022/05/02 03:40:00;;;;;;;12.15;6.78;;;;;;;10.55;61.38;93855.41;5062431;28;20033;-74
2022/05/02 03:42:26;;;;;;;8.88;6.43;;;;;;;10.50;61.97;93848.38;5062390;28;20025;-74
2022/05/02 03:44:51;;;;;;;14.88;7.43;;;;;;;10.47;62.29;93846.31;5062466;28;20264;-74
2022/05/02 03:47:18;;;;;;;10.95;6.63;;;;;;;10.47;62.21;93848.97;5061995;28;20032;-74
2022/05/02 03:49:43;;;;;;;11.43;6.90;;;;;;;10.48;61.92;93847.09;5062186;28;20303;-74
2022/05/02 03:52:09;;;;;;;9.93;6.68;;;;;;;10.48;61.68;93855.09;5062331;28;20139;-74
2022/05/02 03:54:34;;;;;;;10.07;6.60;;;;;;;10.46;61.53;93851.94;5062146;28;20100;-74
2022/05/02 03:57:00;;;;;;;8.20;6.45;;;;;;;10.44;61.80;93844.25;5062130;28;20033;-74
2022/05/02 03:59:25;;;;;;;11.27;6.35;;;;;;;10.44;61.58;93842.41;5062160;28;20347;-74
2022/05/02 04:01:51;;;;;;;12.45;7.05;;;;;;;10.52;61.71;93854.16;5062180;28;20025;-74
2022/05/02 04:04:16;;;;;;;11.10;6.38;;;;;;;10.51;61.67;93854.47;5062058;28;20101;-74
2022/05/02 04:06:42;;;;;;;11.13;6.70;;;;;;;10.51;61.79;93847.25;5062276;28;20017;-74
2022/05/02 04:09:07;;;;;;;8.68;6.43;;;;;;;10.56;61.76;93848.97;5062402;28;20250;-74
2022/05/02 04:11:33;;;;;;;10.07;6.72;;;;;;;10.55;61.52;93850.88;5062289;28;20021;-74
2022/05/02 04:13:58;;;;;;;9.40;6.05;;;;;;;10.60;61.56;93855.25;5062211;28;20021;-74
2022/05/02 04:16:24;;;;;;;12.38;6.20;;;;;;;10.60;61.39;93857.91;5062241;28;20021;-74
2022/05/02 04:18:49;;;;;;;12.13;5.60;;;;;;;10.67;61.26;93857.47;5061870;28;20236;-74
2022/05/02 04:21:15;;;;;;;9.13;5.20;;;;;;;10.70;61.32;93860.28;5062294;28;20101;-75
2022/05/02 04:23:40;;;;;;;10.65;5.50;;;;;;;10.74;61.05;93868.44;5062055;28;20021;-74
2022/05/02 04:26:06;;;;;;;8.77;5.53;;;;;;;10.83;60.80;93859.34;5062055;28;20357;-74
2022/05/02 04:28:31;;;;;;;9.80;6.38;;;;;;;10.92;60.08;93856.66;5062556;28;20062;-74
2022/05/02 04:30:57;;;;;;;13.27;6.57;;;;;;;11.01;59.51;93860.13;5065556;28;20017;-74
2022/05/02 04:33:23;;;;;;;14.80;6.93;;;;;;;11.09;59.15;93858.53;5065844;28;20119;-74
2022/05/02 04:35:49;;;;;;;16.20;5.90;;;;;;;11.16;58.73;93852.75;5065689;28;20315;-74
2022/05/02 04:38:15;;;;;;;14.18;5.80;;;;;;;11.23;58.50;93864.50;5065460;28;20028;-74
2022/05/02 04:40:40;;;;;;;15.77;6.50;;;;;;;11.32;58.07;93861.81;5065505;28;20104;-75
2022/05/02 04:43:06;;;;;;;10.27;5.40;;;;;;;11.42;57.49;93860.69;5065453;28;20064;-76
2022/05/02 04:45:31;;;;;;;9.27;5.70;;;;;;;11.52;57.70;93859.56;5065220;28;20024;-74
2022/05/02 04:47:57;;;;;;;8.00;5.20;;;;;;;11.57;57.53;93864.72;5065314;28;20052;-74
2022/05/02 04:50:23;;;;;;;12.38;5.88;;;;;;;11.69;57.42;93858.72;5065482;28;20040;-74
2022/05/02 04:52:48;;;;;;;7.45;4.75;;;;;;;11.76;57.11;93864.34;5065294;28;20016;-74
2022/05/02 04:55:14;;;;;;;12.63;5.70;;;;;;;11.85;56.84;93857.88;5065242;28;20021;-74
2022/05/02 04:57:40;;;;;;;8.88;5.40;;;;;;;11.90;56.36;93851.59;5064896;28;20039;-75
2022/05/02 05:00:06;;;;;;;20.45;5.30;;;;;;;11.96;56.23;93852.22;5065344;28;20025;-75
2022/05/02 05:02:32;;;;;;;7.13;4.88;;;;;;;12.05;55.96;93852.97;5065185;28;20017;-75
2022/05/02 05:04:57;;;;;;;8.38;5.32;;;;;;;12.11;55.66;93854.34;5065323;28;20017;-75
2022/05/02 05:07:23;;;;;;;6.90;4.60;;;;;;;12.16;55.58;93851.47;5065138;28;20319;-75
2022/05/02 05:09:48;;;;;;;9.25;5.53;;;;;;;12.17;55.21;93853.06;5065012;28;20024;-73
2022/05/02 05:12:26;;;;;;;12.30;5.32;;;;;;;12.21;55.07;93853.16;5064924;28;20021;-74
2022/05/02 05:18:36;;;;;;;13.27;5.32;;;;;;;12.26;55.10;93842.31;5064783;28;20350;-74
2022/05/02 05:21:29;;;;;;;8.77;4.97;;;;;;;12.24;54.75;93836.50;5064801;28;20041;-74
2022/05/02 05:23:57;;;;;;;;;;;;;;;12.25;54.70;93838.06;5065377;28;20095;-74
2022/05/02 05:26:45;;;;;;;16.92;5.78;;;;;;;12.21;54.71;93832.59;5064993;28;20038;-74
2022/05/02 05:29:53;;;;;;;12.02;6.03;;;;;;;12.31;54.97;93836.75;5064469;28;20031;-74
2022/05/02 05:32:28;;;;;;;13.45;5.82;;;;;;;12.35;54.23;93835.00;5064004;28;20043;-73
2022/05/02 05:35:04;;;;;;;10.35;6.25;;;;;;;12.43;54.05;93846.75;5064676;28;20017;-73
2022/05/02 05:37:57;;;;;;;12.13;5.97;;;;;;;12.49;54.08;93837.44;5064490;28;20024;-75
2022/05/02 05:40:38;;;;;;;12.63;6.50;;;;;;;12.52;53.88;93838.69;5064044;28;20029;-76
2022/05/02 05:43:42;;;;;;;11.73;7.55;;;;;;;12.59;53.50;93839.72;5064469;28;20016;-75
2022/05/02 05:46:16;;;;;;;16.55;6.63;;;;;;;12.69;53.26;93845.81;5064262;28;20032;-74
2022/05/02 05:48:51;;;;;;;13.05;6.35;;;;;;;12.74;53.09;93840.25;5064390;28;20353;-74
2022/05/02 05:51:38;;;;;;;14.98;7.75;;;;;;;12.77;52.40;93842.28;5064307;28;20024;-75
2022/05/02 05:54:34;;;;;;;13.55;6.50;;;;;;;12.90;52.69;93835.09;5064199;28;20088;-74
2022/05/02 05:57:16;;;;;;;16.90;7.50;;;;;;;12.91;52.79;93842.78;5064116;28;20079;-74
2022/05/02 06:00:01;;;;;;;11.80;6.55;;;;;;;12.92;52.71;93839.00;5064151;28;20098;-74
2022/05/02 06:02:39;;;;;;;9.88;6.28;;;;;;;12.99;52.47;93833.91;5064224;28;20103;-74
2022/05/02 06:05:07;;;;;;;12.68;6.15;;;;;;;13.04;52.41;93836.38;5064086;28;20031;-74
2022/05/02 06:07:34;;;;;;;17.38;6.30;;;;;;;13.03;52.86;93832.16;5064032;28;20067;-74
2022/05/02 06:10:02;;;;;;;11.10;6.43;;;;;;;13.13;52.13;93825.59;5063943;28;20055;-74
2022/05/02 06:12:30;;;;;;;8.73;5.10;;;;;;;13.21;51.68;93830.09;5064106;28;20036;-74
2022/05/02 06:20:33;;;;;;;8.93;5.65;;;;;;;13.35;51.37;93842.41;5063818;28;20214;-75
2022/05/02 06:23:01;;;;;;;10.32;5.55;;;;;;;13.31;50.91;93842.31;5063537;28;20093;-75
2022/05/02 06:25:29;;;;;;;11.00;6.93;;;;;;;13.39;50.55;93830.75;5063907;28;20044;-75
2022/05/02 06:27:56;;;;;;;13.10;7.25;;;;;;;13.48;50.55;93837.91;5063858;28;20044;-75
2022/05/02 06:30:23;;;;;;;14.05;6.60;;;;;;;13.54;50.48;93823.19;5063657;28;20092;-75
2022/05/02 06:32:51;;;;;;;17.08;6.05;;;;;;;13.63;50.52;93829.22;5063421;28;20041;-75
2022/05/02 06:35:18;;;;;;;14.10;7.05;;;;;;;13.69;50.04;93822.53;5063375;28;20032;-76
2022/05/02 06:38:11;;;;;;;18.73;7.22;;;;;;;13.68;49.50;93817.50;5063336;28;20024;-75
2022/05/02 06:40:46;;;;;;;9.05;5.65;;;;;;;13.65;49.44;93830.44;5063432;28;20098;-75
2022/05/02 06:43:32;;;;;;;9.27;6.38;;;;;;;13.64;49.73;93834.25;5063259;28;20056;-75
2022/05/02 06:46:18;;;;;;;10.60;6.60;;;;;;;13.69;49.55;93821.75;5063398;28;20044;-76
2022/05/02 06:48:51;;;;;;;11.68;6.43;;;;;;;13.76;48.91;93828.13;5063117;28;20216;-75
2022/05/02 06:51:22;;;;;;;10.48;6.25;;;;;;;13.79;47.96;93816.72;5062963;28;20028;-75
2022/05/02 06:54:09;;;;;;;14.13;7.30;;;;;;;13.81;48.47;93817.19;5062375;28;20017;-75
2022/05/02 06:56:45;;;;;;;13.10;7.78;;;;;;;13.82;49.37;93808.03;5062793;28;20310;-75
2022/05/02 06:59:31;;;;;;;8.25;6.03;;;;;;;13.91;48.05;93807.16;5062930;28;20135;-75
2022/05/02 07:02:12;;;;;;;8.50;6.25;;;;;;;14.00;47.71;93815.84;5062759;28;20307;-75
2022/05/02 07:04:52;;;;;;;11.23;6.40;;;;;;;14.06;46.96;93811.81;5062901;28;20048;-75
2022/05/02 07:07:32;;;;;;;17.00;7.03;;;;;;;14.13;46.95;93803.25;5062916;28;20035;-75
2022/05/02 07:10:20;;;;;;;9.88;6.72;;;;;;;14.14;47.70;93800.19;5063014;28;20021;-75
2022/05/02 07:13:20;;;;;;;8.60;6.57;;;;;;;14.19;47.62;93802.66;5062808;28;20025;-75
2022/05/02 07:16:05;;;;;;;15.73;6.45;;;;;;;14.28;47.12;93807.91;5062704;28;20211;-75
2022/05/02 07:18:52;;;;;;;13.73;6.35;;;;;;;14.33;46.97;93802.31;5062907;28;20055;-75
2022/05/02 07:21:46;;;;;;;11.20;7.35;;;;;;;14.41;47.14;93805.97;5062733;28;20095;-75
2022/05/02 07:24:48;;;;;;;11.90;6.32;;;;;;;14.47;47.34;93801.97;5057703;28;20041;-75
2022/05/02 07:27:23;;;;;;;16.38;7.50;;;;;;;14.58;46.71;93797.72;5062980;28;20021;-75
2022/05/02 07:29:50;;;;;;;13.75;7.47;;;;;;;14.70;46.62;93804.16;5062303;28;20219;-75
2022/05/02 07:32:21;;;;;;;10.95;6.30;;;;;;;14.75;45.65;93795.88;5062097;28;20029;-74
2022/05/02 07:34:48;;;;;;;11.32;6.65;;;;;;;14.83;45.48;93803.00;5061984;28;20028;-74
2022/05/02 07:37:18;;;;;;;8.85;5.80;;;;;;;14.87;45.73;93797.72;5062510;28;20075;-73
2022/05/02 07:39:45;;;;;;;9.88;6.40;;;;;;;14.97;45.67;93786.50;5062487;28;20036;-73
2022/05/02 07:42:12;;;;;;;6.85;4.60;;;;;;;15.08;44.80;93792.16;5062605;28;20028;-75
2022/05/02 07:44:38;;;;;;;6.13;4.45;;;;;;;15.16;42.96;93793.91;5062354;28;20083;-74
2022/05/02 07:47:05;;;;;;;12.02;4.72;;;;;;;15.27;43.30;93797.66;5062621;28;20316;-76
2022/05/02 07:49:33;;;;;;;10.10;4.57;;;;;;;15.38;43.29;93801.41;5062480;28;20054;-76
2022/05/02 07:52:02;;;;;;;10.55;4.60;;;;;;;15.38;42.31;93806.78;5062710;28;20028;-75
2022/05/02 07:54:36;;;;;;;14.20;4.97;;;;;;;15.47;42.62;93808.50;5062435;28;20029;-75
2022/05/02 07:57:04;;;;;;;9.65;4.28;;;;;;;15.45;42.60;93809.66;5062233;28;20299;-75
2022/05/02 07:59:38;;;;;;;13.18;4.72;;;;;;;15.49;43.04;93815.13;5062203;28;20032;-75
2022/05/02 08:02:05;;;;;;;9.15;4.53;;;;;;;15.51;42.73;93814.75;5062296;28;20021;-74
2022/05/02 08:04:30;;;;;;;8.48;4.43;;;;;;;15.60;42.84;93820.75;5064895;28;20021;-74
2022/05/02 08:07:13;;;;;;;10.75;4.90;;;;;;;15.62;42.23;93818.50;5066454;28;20192;-74
2022/05/02 08:09:39;;;;;;;7.05;4.82;;;;;;;15.72;44.43;93820.72;5066130;28;20025;-76
2022/05/02 08:12:07;;;;;;;10.82;5.40;;;;;;;15.91;45.54;93821.94;5065854;28;20017;-76
2022/05/02 08:15:00;;;;;;;8.48;4.97;;;;;;;16.12;43.97;93822.44;5066460;28;20031;-75
2022/05/02 08:17:54;;;;;;;8.05;5.05;;;;;;;16.36;42.85;93818.75;5066052;28;20021;-76
2022/05/02 08:20:35;;;;;;;7.97;5.07;;;;;;;16.69;42.36;93817.56;5065918;28;20033;-75
2022/05/02 08:29:16;;;;;;;11.63;4.70;;;;;;;17.34;38.52;93803.50;5065696;28;20079;-75
2022/05/02 08:32:11;;;;;;;13.77;4.95;;;;;;;17.31;39.17;93804.19;5065482;28;20307;-75
2022/05/02 08:34:45;;;;;;;11.45;5.20;;;;;;;17.15;39.83;93811.56;5057732;28;20266;-74
2022/05/02 08:37:13;;;;;;;10.82;4.35;;;;;;;17.21;38.67;93808.22;5065625;28;20103;-74
2022/05/02 08:40:00;;;;;;;9.23;4.78;;;;;;;17.16;38.30;93813.91;5065401;28;20044;-74
2022/05/02 08:42:47;;;;;;;8.90;5.05;;;;;;;17.10;37.49;93807.25;5065573;28;20025;-74
2022/05/02 08:45:21;;;;;;;9.57;5.03;;;;;;;17.10;38.40;93803.78;5065311;28;20306;-74
2022/05/02 08:47:58;;;;;;;14.05;5.88;;;;;;;17.11;38.24;93821.50;5065452;28;20043;-74
2022/05/02 08:50:55;;;;;;;11.52;4.47;;;;;;;17.08;36.75;93814.16;5065325;28;20052;-74
2022/05/02 08:53:34;;;;;;;12.90;5.10;;;;;;;17.05;37.38;93786.75;5065144;28;20272;-74
2022/05/02 08:56:24;;;;;;;7.78;4.70;;;;;;;17.00;36.48;93789.75;5065477;28;20049;-74
2022/05/02 08:59:04;;;;;;;8.77;4.95;;;;;;;16.94;36.80;93783.09;5065286;28;20032;-75
2022/05/02 09:01:56;;;;;;;7.47;4.78;;;;;;;16.94;37.48;93787.72;5065544;28;20032;-75
2022/05/02 09:04:59;;;;;;;8.43;5.28;;;;;;;16.94;37.92;93788.47;5065234;28;20021;-75
2022/05/02 09:08:02;;;;;;;10.65;4.68;;;;;;;16.86;36.58;93784.09;5065218;28;20142;-73
2022/05/02 09:10:27;;;;;;;;;;;;;;;16.80;36.91;93780.09;5065693;28;20021;-74
2022/05/02 09:13:34;;;;;;;11.45;4.63;;;;;;;16.67;37.48;93778.66;5065184;28;20238;-74
2022/05/02 09:16:33;;;;;;;9.25;3.45;;;;;;;16.54;35.88;93781.47;5064127;28;20047;-74
2022/05/02 09:19:26;;;;;;;8.27;3.97;;;;;;;16.61;34.64;93767.41;5065079;28;20223;-74
2022/05/02 09:22:33;;;;;;;7.95;4.00;;;;;;;16.63;35.67;93767.84;5064648;28;20254;-74
2022/05/02 09:25:10;;;;;;;13.02;4.40;;;;;;;16.81;35.33;93766.31;5057282;28;20021;-73
2022/05/02 09:27:54;;;;;;;4.60;3.15;;;;;;;16.94;34.47;93761.56;5064949;28;20039;-74
2022/05/02 09:30:57;;;;;;;8.90;4.80;;;;;;;17.07;34.79;93759.50;5064961;28;20028;-73
2022/05/02 09:33:30;;;;;;;15.77;4.43;;;;;;;17.19;34.91;93764.72;5064803;28;20040;-73
2022/05/02 09:36:05;;;;;;;4.65;3.40;;;;;;;17.42;34.21;93761.25;5064636;28;20031;-73
2022/05/02 09:38:51;;;;;;;15.95;6.15;;;;;;;17.71;40.22;93759.84;5064651;28;20025;-72
2022/05/02 09:41:56;;;;;;;6.93;4.20;;;;;;;18.02;35.67;93763.44;5064271;28;20025;-72
2022/05/02 09:50:34;;;;;;;5.13;3.03;;;;;;;18.58;30.23;93733.00;5064203;28;20064;-73
2022/05/02 09:53:27;;;;;;;6.20;3.17;;;;;;;18.50;30.67;93730.56;5064134;28;20021;-73
2022/05/02 09:59:07;;;;;;;6.72;3.22;;;;;;;18.33;30.42;93713.78;5064027;28;20032;-73
2022/05/02 10:01:33;;;;;;;8.63;3.13;;;;;;;18.35;31.05;93729.59;5064198;28;20051;-74
2022/05/02 10:04:14;;;;;;;6.47;3.58;;;;;;;18.28;30.75;93726.81;5063695;28;20029;-74
2022/05/02 10:06:46;;;;;;;4.57;2.58;;;;;;;18.30;28.84;93722.63;5064156;28;20029;-73
2022/05/02 10:09:14;;;;;;;;;;;;;;;18.28;29.71;93710.63;5064467;28;20028;-73
2022/05/02 10:11:52;;;;;;;6.18;2.40;;;;;;;18.27;30.12;93709.84;5064170;28;20095;-73
2022/05/02 10:14:39;;;;;;;4.13;2.35;;;;;;;18.39;29.62;93714.25;5063767;28;20222;-73
2022/05/02 10:17:16;;;;;;;5.93;3.00;;;;;;;18.42;30.16;93708.91;5063908;28;20032;-73
2022/05/02 10:20:04;;;;;;;3.92;2.38;;;;;;;18.54;31.42;93713.28;5063762;28;20337;-73
2022/05/02 10:23:09;;;;;;;4.07;2.80;;;;;;;18.68;30.64;93703.78;5063812;28;20050;-74
2022/05/02 10:25:55;;;;;;;7.97;2.95;;;;;;;18.74;30.76;93715.81;5041987;28;20072;-74
2022/05/02 10:28:59;;;;;;;4.18;2.53;;;;;;;18.76;30.50;93727.03;5062635;28;20036;-74
2022/05/02 10:31:25;;;;;;;6.13;3.22;;;;;;;18.71;31.05;93716.56;5063649;28;20346;-74
2022/05/02 10:33:53;;;;;;;4.60;2.95;;;;;;;18.78;31.38;93720.13;5063430;28;20033;-73
2022/05/02 10:36:36;;;;;;;8.50;3.17;;;;;;;18.86;30.05;93704.03;5063486;28;20089;-75
2022/05/02 10:39:11;;;;;;;7.88;3.15;;;;;;;18.94;29.30;93711.84;5063609;28;20029;-73
2022/05/02 10:41:46;;;;;;;4.28;2.30;;;;;;;18.96;28.79;93714.94;5063339;28;20059;-74
2022/05/02 10:44:15;;;;;;;5.05;2.17;;;;;;;19.03;28.05;93708.84;5063235;28;20243;-73
2022/05/02 10:46:44;;;;;;;4.60;2.53;;;;;;;19.10;28.17;93708.16;5063414;28;20047;-74
2022/05/02 10:49:48;;;;;;;7.10;3.10;;;;;;;19.24;29.27;93711.75;5061878;28;20327;-73
2022/05/02 10:52:35;;;;;;;4.15;2.53;;;;;;;19.32;28.78;93709.16;5062998;28;20204;-74
2022/05/02 10:55:05;;;;;;;3.65;2.60;;;;;;;19.42;29.32;93695.72;5061411;28;20118;-73
2022/05/02 10:57:38;;;;;;;4.75;3.03;;;;;;;19.48;29.85;93692.66;5062885;28;20094;-73
2022/05/02 11:00:06;;;;;;;6.10;2.80;;;;;;;19.57;30.40;93690.44;5063048;28;20269;-73
2022/05/02 11:02:48;;;;;;;4.88;2.65;;;;;;;19.70;28.88;93686.31;5063087;28;20036;-73
2022/05/02 11:05:27;;;;;;;6.77;2.73;;;;;;;19.81;26.91;93689.88;5062783;28;20029;-73
2022/05/02 11:07:59;;;;;;;10.10;2.15;;;;;;;19.92;26.11;93691.88;5062975;28;20032;-73
2022/05/02 11:10:29;;;;;;;;;;;;;;;19.84;26.38;93689.16;5063438;28;20097;-73
2022/05/02 11:13:15;;;;;;;9.80;2.15;;;;;;;19.99;26.77;93681.13;5062710;28;19912;-73
2022/05/02 11:15:44;;;;;;;5.22;2.20;;;;;;;20.07;26.83;93685.41;5062675;28;20048;-73
2022/05/02 11:21:17;;;;;;;4.68;2.80;;;;;;;20.43;27.40;93682.88;5062715;28;20039;-72
2022/05/02 11:24:09;;;;;;;9.75;4.03;;;;;;;20.57;28.51;93682.94;5062444;28;20052;-72
2022/05/02 11:27:07;;;;;;;7.95;4.07;;;;;;;20.74;28.61;93684.22;5062743;28;20028;-71
2022/05/02 11:29:48;;;;;;;11.13;4.90;;;;;;;20.96;29.25;93685.03;5058441;28;20035;-71
2022/05/02 11:32:27;;;;;;;8.07;3.47;;;;;;;21.13;28.73;93672.72;5062421;28;20047;-71
2022/05/02 11:35:22;;;;;;;8.23;3.80;;;;;;;21.12;28.14;93675.81;5062322;28;20126;-72
2022/05/02 11:38:14;;;;;;;9.77;4.35;;;;;;;21.02;27.79;93678.13;5061884;28;20044;-73
2022/05/02 11:40:46;;;;;;;4.22;2.03;;;;;;;20.76;27.46;93689.25;5066735;28;20025;-72
2022/05/02 11:43:15;;;;;;;13.75;3.22;;;;;;;20.61;29.19;93688.41;5066481;28;20063;-73
2022/05/02 11:45:43;;;;;;;8.15;3.42;;;;;;;20.57;29.75;93688.38;5066193;28;20033;-71
2022/05/02 11:48:20;;;;;;;5.25;2.20;;;;;;;20.47;28.20;93686.38;5066492;28;20050;-73
2022/05/02 11:50:48;;;;;;;4.93;2.00;;;;;;;20.50;28.24;93682.94;5066427;28;20307;-73
2022/05/02 11:53:17;;;;;;;7.63;3.17;;;;;;;20.38;28.51;93680.56;5066622;28;20037;-73
2022/05/02 11:55:44;;;;;;;5.85;2.22;;;;;;;20.21;28.34;93684.72;5066362;28;20103;-73
2022/05/02 11:58:35;;;;;;;7.40;2.10;;;;;;;20.06;28.31;93674.97;5066284;28;20025;-72
2022/05/02 12:01:09;;;;;;;5.30;2.33;;;;;;;19.92;28.60;93660.19;5066431;28;20180;-74
2022/05/02 12:03:47;;;;;;;13.00;2.40;;;;;;;19.81;28.11;93676.34;5066378;28;20032;-73
2022/05/02 12:06:16;;;;;;;3.67;2.28;;;;;;;19.67;28.14;93665.41;5066374;28;20025;-73
2022/05/02 12:08:46;;;;;;;8.40;2.25;;;;;;;19.58;27.81;93678.47;5066281;28;20032;-73
2022/05/02 12:11:14;;;;;;;8.77;3.22;;;;;;;19.45;28.62;93680.69;5066198;28;20029;-73
2022/05/02 12:13:44;;;;;;;14.35;3.90;;;;;;;19.36;28.98;93672.91;5065891;28;20075;-73
2022/05/02 12:16:15;;;;;;;7.45;3.00;;;;;;;19.37;29.23;93665.56;5066016;28;20092;-73
2022/05/02 12:18:50;;;;;;;9.55;2.42;;;;;;;19.37;28.21;93669.03;5066117;28;20280;-73
2022/05/02 12:21:45;;;;;;;4.47;2.53;;;;;;;19.34;28.65;93664.38;5066149;28;20013;-73
2022/05/02 12:24:14;;;;;;;11.27;2.55;;;;;;;19.24;29.27;93671.25;5066054;28;20028;-72
2022/05/02 12:26:51;;;;;;;3.22;2.25;;;;;;;19.19;29.79;93668.09;5066050;28;20176;-73
2022/05/02 12:29:19;;;;;;;8.80;3.35;;;;;;;19.09;29.67;93664.16;5065733;28;20528;-72
2022/05/02 12:31:56;;;;;;;9.23;3.25;;;;;;;19.02;29.65;93664.84;5065860;28;20036;-74